Time,TemperatureF,DewpointF,PressureIn,WindDirection,WindDirectionDegrees,WindSpeedMPH,WindSpeedGustMPH,Humidity,HourlyPrecipIn,Conditions,Clouds,dailyrainin,SoftwareType,DateUTC
2014-08-21 00:11:00,68.7,66.0,29.73,SSW,193,1.0,5.0,90,0.00,,,0.00,weatherlink.com 1.10,2014-08-21 05:11:00,
2014-08-21 00:26:00,68.6,66.0,29.72,WSW,248,8.0,8.0,90,0.00,,,0.00,weatherlink.com 1.10,2014-08-21 05:26:00,
2014-08-21 00:41:00,68.6,66.0,29.70,SW,233,3.0,5.0,90,0.00,,,0.00,weatherlink.com 1.10,2014-08-21 05:41:00,
2014-08-21 00:56:00,68.4,65.0,29.70,SW,218,0.0,6.0,90,0.00,,,0.00,weatherlink.com 1.10,2014-08-21 05:56:00,
2014-08-21 01:11:00,68.3,65.0,29.69,NW,308,2.0,5.0,90,0.00,,,0.00,weatherlink.com 1.10,2014-08-21 06:11:00,
2014-08-21 01:26:00,68.2,65.0,29.68,SSW,207,0.0,5.0,90,0.00,,,0.00,weatherlink.com 1.10,2014-08-21 06:26:00,
2014-08-21 01:41:00,68.1,65.0,29.68,SW,217,1.0,5.0,90,0.00,,,0.00,weatherlink.com 1.10,2014-08-21 06:41:00,
2014-08-21 01:56:00,68.0,65.0,29.68,East,82,4.0,4.0,90,0.00,,,0.00,weatherlink.com 1.10,2014-08-21 06:56:00,
2014-08-21 02:11:00,68.0,65.0,29.69,SSW,205,2.0,3.0,90,0.00,,,0.00,weatherlink.com 1.10,2014-08-21 07:11:00,
2014-08-21 02:26:00,68.2,65.0,29.67,South,184,0.0,4.0,89,0.00,,,0.00,weatherlink.com 1.10,2014-08-21 07:26:00,
2014-08-21 02:41:00,68.3,65.0,29.66,SSW,198,1.0,6.0,89,0.00,,,0.00,weatherlink.com 1.10,2014-08-21 07:41:00,
2014-08-21 02:56:00,67.9,65.0,29.66,South,187,1.0,4.0,90,0.00,,,0.00,weatherlink.com 1.10,2014-08-21 07:56:00,
2014-08-21 03:11:00,67.3,65.0,29.66,SSW,201,1.0,5.0,91,0.02,,,0.02,weatherlink.com 1.10,2014-08-21 08:11:00,
2014-08-21 03:26:00,66.9,64.0,29.66,South,176,1.0,3.0,91,0.04,,,0.04,weatherlink.com 1.10,2014-08-21 08:26:00,
2014-08-21 03:41:00,66.6,64.0,29.65,South,190,1.0,5.0,91,0.07,,,0.07,weatherlink.com 1.10,2014-08-21 08:41:00,
2014-08-21 03:56:00,66.4,64.0,29.66,SSW,207,0.0,3.0,91,0.09,,,0.09,weatherlink.com 1.10,2014-08-21 08:56:00,
2014-08-21 04:11:00,66.2,64.0,29.64,SSW,203,1.0,5.0,91,0.08,,,0.10,weatherlink.com 1.10,2014-08-21 09:11:00,
2014-08-21 04:26:00,66.3,63.0,29.65,South,177,0.0,5.0,90,0.07,,,0.11,weatherlink.com 1.10,2014-08-21 09:26:00,
2014-08-21 04:41:00,66.7,64.0,29.65,South,183,1.0,4.0,90,0.05,,,0.12,weatherlink.com 1.10,2014-08-21 09:41:00,
2014-08-21 04:56:00,66.6,64.0,29.67,SSE,158,0.0,6.0,90,0.08,,,0.17,weatherlink.com 1.10,2014-08-21 09:56:00,
2014-08-21 05:11:00,66.8,64.0,29.70,SE,134,2.0,3.0,90,0.10,,,0.20,weatherlink.com 1.10,2014-08-21 10:11:00,
2014-08-21 05:26:00,66.8,64.0,29.71,SE,141,0.0,6.0,90,0.15,,,0.26,weatherlink.com 1.10,2014-08-21 10:26:00,
2014-08-21 05:41:00,66.7,64.0,29.71,South,186,0.0,0.0,90,0.18,,,0.31,weatherlink.com 1.10,2014-08-21 10:41:00,
2014-08-21 05:56:00,66.6,63.0,29.71,South,185,0.0,0.0,89,0.21,,,0.38,weatherlink.com 1.10,2014-08-21 10:56:00,
2014-08-21 06:12:00,-999.0,-99.9,29.73,North,-999,-999.0,-999.0,-999,0.18,,,0.38,weatherlink.com 1.10,2014-08-21 11:12:00,
2014-08-21 06:27:00,-999.0,-99.9,29.69,North,-999,-999.0,-999.0,-999,0.12,,,0.38,weatherlink.com 1.10,2014-08-21 11:27:00,
2014-08-21 06:42:00,-999.0,-99.9,29.68,North,-999,-999.0,-999.0,-999,0.07,,,0.38,weatherlink.com 1.10,2014-08-21 11:42:00,
2014-08-21 06:57:00,-999.0,-99.9,29.66,North,-999,-999.0,-999.0,-999,0.00,,,0.38,weatherlink.com 1.10,2014-08-21 11:57:00,
2014-08-21 07:12:00,-999.0,-99.9,29.66,North,-999,-999.0,-999.0,-999,0.00,,,0.38,weatherlink.com 1.10,2014-08-21 12:12:00,
2014-08-21 07:27:00,-999.0,-99.9,29.66,North,-999,-999.0,-999.0,-999,0.00,,,0.38,weatherlink.com 1.10,2014-08-21 12:27:00,
2014-08-21 07:42:00,-999.0,-99.9,29.65,North,-999,-999.0,-999.0,-999,0.00,,,0.38,weatherlink.com 1.10,2014-08-21 12:42:00,
2014-08-21 07:57:00,-999.0,-99.9,29.65,North,-999,-999.0,-999.0,-999,0.00,,,0.38,weatherlink.com 1.10,2014-08-21 12:57:00,
2014-08-21 08:12:00,67.5,64.0,29.65,WSW,242,2.0,4.0,89,0.00,,,0.38,weatherlink.com 1.10,2014-08-21 13:12:00,
2014-08-21 08:27:00,68.4,65.0,29.65,South,174,0.0,5.0,89,0.00,,,0.38,weatherlink.com 1.10,2014-08-21 13:27:00,
2014-08-21 08:42:00,69.0,66.0,29.64,SSW,205,2.0,5.0,89,0.00,,,0.38,weatherlink.com 1.10,2014-08-21 13:42:00,
2014-08-21 08:57:00,69.4,66.0,29.64,SSW,208,1.0,5.0,89,0.00,,,0.38,weatherlink.com 1.10,2014-08-21 13:57:00,
2014-08-21 09:12:00,70.0,67.0,29.64,NNE,28,2.0,6.0,90,0.00,,,0.38,weatherlink.com 1.10,2014-08-21 14:12:00,
2014-08-21 09:27:00,70.2,67.0,29.63,SSW,211,0.0,7.0,90,0.00,,,0.38,weatherlink.com 1.10,2014-08-21 14:27:00,
2014-08-21 09:42:00,70.8,68.0,29.64,SW,236,3.0,5.0,90,0.00,,,0.38,weatherlink.com 1.10,2014-08-21 14:42:00,
2014-08-21 09:57:00,71.7,69.0,29.63,SSE,162,0.0,8.0,90,0.00,,,0.38,weatherlink.com 1.10,2014-08-21 14:57:00,
2014-08-21 10:12:00,72.5,69.0,29.63,SSW,195,0.0,7.0,89,0.00,,,0.38,weatherlink.com 1.10,2014-08-21 15:12:00,
2014-08-21 10:27:00,72.6,69.0,29.64,SSW,197,1.0,6.0,89,0.00,,,0.38,weatherlink.com 1.10,2014-08-21 15:27:00,
2014-08-21 10:42:00,72.2,69.0,29.64,South,181,0.0,4.0,89,0.00,,,0.38,weatherlink.com 1.10,2014-08-21 15:42:00,
2014-08-21 10:57:00,72.0,69.0,29.64,SW,222,2.0,5.0,90,0.00,,,0.38,weatherlink.com 1.10,2014-08-21 15:57:00,
2014-08-21 11:12:00,72.2,69.0,29.64,SSW,211,1.0,4.0,90,0.00,,,0.38,weatherlink.com 1.10,2014-08-21 16:12:00,
2014-08-21 11:27:00,72.2,69.0,29.64,ENE,57,3.0,5.0,90,0.00,,,0.38,weatherlink.com 1.10,2014-08-21 16:27:00,
2014-08-21 11:42:00,72.3,69.0,29.64,SSW,208,0.0,5.0,89,0.00,,,0.38,weatherlink.com 1.10,2014-08-21 16:42:00,
2014-08-21 11:57:00,72.2,69.0,29.64,SSW,197,0.0,2.0,90,0.00,,,0.38,weatherlink.com 1.10,2014-08-21 16:57:00,
2014-08-21 12:12:00,72.2,69.0,29.65,SSW,204,0.0,3.0,90,0.00,,,0.38,weatherlink.com 1.10,2014-08-21 17:12:00,
2014-08-21 12:27:00,72.4,69.0,29.65,SSW,195,0.0,2.0,90,0.00,,,0.38,weatherlink.com 1.10,2014-08-21 17:27:00,
2014-08-21 12:42:00,72.7,70.0,29.64,SSW,205,0.0,0.0,90,0.00,,,0.38,weatherlink.com 1.10,2014-08-21 17:42:00,
2014-08-21 12:57:00,73.0,70.0,29.64,SW,233,1.0,4.0,90,0.00,,,0.38,weatherlink.com 1.10,2014-08-21 17:57:00,
2014-08-21 13:12:00,73.2,70.0,29.64,SSW,203,1.0,4.0,90,0.00,,,0.38,weatherlink.com 1.10,2014-08-21 18:12:00,
2014-08-21 13:27:00,73.4,70.0,29.64,SSW,208,1.0,5.0,90,0.00,,,0.38,weatherlink.com 1.10,2014-08-21 18:27:00,
2014-08-21 13:42:00,73.1,70.0,29.64,South,185,0.0,3.0,90,0.00,,,0.38,weatherlink.com 1.10,2014-08-21 18:42:00,
2014-08-21 13:57:00,73.6,71.0,29.64,NW,307,2.0,4.0,90,0.00,,,0.38,weatherlink.com 1.10,2014-08-21 18:57:00,
2014-08-21 14:12:00,73.9,71.0,29.64,SSW,193,0.0,4.0,89,0.00,,,0.38,weatherlink.com 1.10,2014-08-21 19:12:00,
2014-08-21 14:27:00,73.9,71.0,29.65,South,189,0.0,6.0,89,0.00,,,0.38,weatherlink.com 1.10,2014-08-21 19:27:00,
2014-08-21 14:42:00,73.8,71.0,29.66,SSE,148,0.0,3.0,90,0.00,,,0.38,weatherlink.com 1.10,2014-08-21 19:42:00,
2014-08-21 14:57:00,74.0,71.0,29.66,South,187,0.0,6.0,90,0.00,,,0.38,weatherlink.com 1.10,2014-08-21 19:57:00,
2014-08-21 15:12:00,74.0,71.0,29.66,South,187,0.0,3.0,90,0.00,,,0.38,weatherlink.com 1.10,2014-08-21 20:12:00,
2014-08-21 15:28:00,74.2,71.0,29.66,SSW,205,0.0,1.0,90,0.00,,,0.38,weatherlink.com 1.10,2014-08-21 20:28:00,
2014-08-21 15:43:00,74.8,71.0,29.67,South,186,0.0,1.0,89,0.00,,,0.38,weatherlink.com 1.10,2014-08-21 20:43:00,
2014-08-21 15:58:00,75.3,72.0,29.67,SSW,194,0.0,3.0,89,0.00,,,0.38,weatherlink.com 1.10,2014-08-21 20:58:00,
2014-08-21 16:13:00,76.0,72.0,29.67,SSW,205,0.0,1.0,88,0.00,,,0.38,weatherlink.com 1.10,2014-08-21 21:13:00,
2014-08-21 16:28:00,75.8,72.0,29.68,SSW,197,1.0,4.0,88,0.00,,,0.38,weatherlink.com 1.10,2014-08-21 21:28:00,
2014-08-21 16:43:00,75.9,73.0,29.68,SSW,203,1.0,4.0,89,0.00,,,0.38,weatherlink.com 1.10,2014-08-21 21:43:00,
2014-08-21 16:58:00,76.1,72.0,29.68,SW,219,2.0,4.0,88,0.00,,,0.38,weatherlink.com 1.10,2014-08-21 21:58:00,
2014-08-21 17:13:00,76.0,72.0,29.69,South,180,1.0,3.0,88,0.00,,,0.38,weatherlink.com 1.10,2014-08-21 22:13:00,
2014-08-21 17:28:00,76.4,72.0,29.70,South,173,0.0,3.0,87,0.00,,,0.38,weatherlink.com 1.10,2014-08-21 22:28:00,
2014-08-21 17:43:00,76.4,73.0,29.70,South,190,0.0,1.0,88,0.00,,,0.38,weatherlink.com 1.10,2014-08-21 22:43:00,
2014-08-21 17:58:00,76.4,73.0,29.69,SSW,192,0.0,2.0,88,0.00,,,0.38,weatherlink.com 1.10,2014-08-21 22:58:00,
2014-08-21 18:13:00,77.2,74.0,29.69,South,181,0.0,2.0,88,0.00,,,0.38,weatherlink.com 1.10,2014-08-21 23:13:00,
2014-08-21 18:28:00,77.6,74.0,29.68,South,190,0.0,1.0,87,0.00,,,0.38,weatherlink.com 1.10,2014-08-21 23:28:00,
2014-08-21 18:43:00,77.8,73.0,29.69,SSW,211,1.0,1.0,85,0.00,,,0.38,weatherlink.com 1.10,2014-08-21 23:43:00,
2014-08-21 18:58:00,76.4,73.0,29.69,SSW,207,0.0,1.0,88,0.00,,,0.38,weatherlink.com 1.10,2014-08-21 23:58:00,
2014-08-21 19:13:00,75.8,72.0,29.69,SSW,207,0.0,0.0,89,0.00,,,0.38,weatherlink.com 1.10,2014-08-22 00:13:00,
2014-08-21 19:28:00,75.2,72.0,29.70,SSW,207,0.0,0.0,89,0.00,,,0.38,weatherlink.com 1.10,2014-08-22 00:28:00,
2014-08-21 19:43:00,75.0,72.0,29.70,SSW,207,0.0,0.0,90,0.00,,,0.38,weatherlink.com 1.10,2014-08-22 00:43:00,
2014-08-21 19:58:00,74.8,72.0,29.70,SSW,207,0.0,0.0,90,0.00,,,0.38,weatherlink.com 1.10,2014-08-22 00:58:00,
2014-08-21 20:13:00,74.7,72.0,29.70,SSW,205,0.0,0.0,90,0.00,,,0.38,weatherlink.com 1.10,2014-08-22 01:13:00,
2014-08-21 20:28:00,74.5,72.0,29.71,SSW,205,0.0,0.0,90,0.00,,,0.38,weatherlink.com 1.10,2014-08-22 01:28:00,
2014-08-21 20:43:00,74.2,71.0,29.71,SSW,206,0.0,0.0,90,0.00,,,0.38,weatherlink.com 1.10,2014-08-22 01:43:00,
2014-08-21 20:58:00,74.0,71.0,29.71,SSW,206,0.0,0.0,90,0.00,,,0.38,weatherlink.com 1.10,2014-08-22 01:58:00,
2014-08-21 21:13:00,73.3,70.0,29.72,SSW,205,0.0,0.0,90,0.00,,,0.38,weatherlink.com 1.10,2014-08-22 02:13:00,
2014-08-21 21:28:00,72.5,70.0,29.72,SSW,206,0.0,0.0,90,0.00,,,0.38,weatherlink.com 1.10,2014-08-22 02:28:00,
2014-08-21 21:43:00,71.9,69.0,29.72,SSW,206,0.0,0.0,90,0.00,,,0.38,weatherlink.com 1.10,2014-08-22 02:43:00,
2014-08-21 21:58:00,71.5,68.0,29.72,SSW,205,0.0,0.0,89,0.00,,,0.38,weatherlink.com 1.10,2014-08-22 02:58:00,
2014-08-21 22:13:00,71.6,68.0,29.72,SSW,205,0.0,0.0,89,0.00,,,0.38,weatherlink.com 1.10,2014-08-22 03:13:00,
2014-08-21 22:28:00,71.8,69.0,29.72,SSW,205,0.0,0.0,89,0.00,,,0.38,weatherlink.com 1.10,2014-08-22 03:28:00,
2014-08-21 22:43:00,71.6,68.0,29.73,SSW,203,0.0,0.0,89,0.00,,,0.38,weatherlink.com 1.10,2014-08-22 03:43:00,
2014-08-21 22:58:00,71.5,68.0,29.73,SSW,203,0.0,0.0,89,0.00,,,0.38,weatherlink.com 1.10,2014-08-22 03:58:00,
2014-08-21 23:13:00,71.5,68.0,29.73,SSW,195,0.0,0.0,89,0.00,,,0.38,weatherlink.com 1.10,2014-08-22 04:13:00,
2014-08-21 23:28:00,71.6,68.0,29.73,South,188,0.0,0.0,89,0.00,,,0.38,weatherlink.com 1.10,2014-08-22 04:28:00,